sensor_id;sensor_type;location;lat;lon;timestamp;P1;durP1;ratioP1;P2;durP2;ratioP2
65206;SDS011;58477;48.072;11.970;2022-08-19T00:00:04;5.70;;;5.10;;
65206;SDS011;58477;48.072;11.970;2022-08-19T00:02:33;6.05;;;4.88;;
65206;SDS011;58477;48.072;11.970;2022-08-19T00:04:58;5.75;;;5.10;;
65206;SDS011;58477;48.072;11.970;2022-08-19T00:07:24;5.30;;;4.80;;
65206;SDS011;58477;48.072;11.970;2022-08-19T00:09:49;4.90;;;4.40;;
65206;SDS011;58477;48.072;11.970;2022-08-19T00:12:15;9.15;;;5.15;;
65206;SDS011;58477;48.072;11.970;2022-08-19T00:14:40;6.22;;;4.80;;
65206;SDS011;58477;48.072;11.970;2022-08-19T00:17:07;6.00;;;5.00;;
65206;SDS011;58477;48.072;11.970;2022-08-19T00:19:33;5.20;;;4.55;;
65206;SDS011;58477;48.072;11.970;2022-08-19T00:22:00;5.43;;;4.65;;
65206;SDS011;58477;48.072;11.970;2022-08-19T00:24:27;5.47;;;4.88;;
65206;SDS011;58477;48.072;11.970;2022-08-19T00:26:53;6.60;;;4.78;;
65206;SDS011;58477;48.072;11.970;2022-08-19T00:29:20;4.68;;;4.25;;
65206;SDS011;58477;48.072;11.970;2022-08-19T00:31:46;8.25;;;4.65;;
65206;SDS011;58477;48.072;11.970;2022-08-19T00:34:13;5.40;;;4.32;;
65206;SDS011;58477;48.072;11.970;2022-08-19T00:36:39;5.65;;;4.47;;
65206;SDS011;58477;48.072;11.970;2022-08-19T00:39:05;4.50;;;4.10;;
65206;SDS011;58477;48.072;11.970;2022-08-19T00:41:31;6.15;;;4.70;;
65206;SDS011;58477;48.072;11.970;2022-08-19T00:44:11;4.80;;;4.22;;
65206;SDS011;58477;48.072;11.970;2022-08-19T00:46:45;4.45;;;3.78;;
65206;SDS011;58477;48.072;11.970;2022-08-19T00:49:19;5.88;;;4.53;;
65206;SDS011;58477;48.072;11.970;2022-08-19T00:51:48;5.63;;;3.97;;
65206;SDS011;58477;48.072;11.970;2022-08-19T00:54:16;7.95;;;4.50;;
65206;SDS011;58477;48.072;11.970;2022-08-19T00:56:42;4.45;;;4.05;;
65206;SDS011;58477;48.072;11.970;2022-08-19T00:59:09;4.57;;;4.18;;
65206;SDS011;58477;48.072;11.970;2022-08-19T01:01:39;4.82;;;4.25;;
65206;SDS011;58477;48.072;11.970;2022-08-19T01:04:06;4.20;;;3.80;;
65206;SDS011;58477;48.072;11.970;2022-08-19T01:06:32;5.40;;;4.30;;
65206;SDS011;58477;48.072;11.970;2022-08-19T01:09:00;5.03;;;3.88;;
65206;SDS011;58477;48.072;11.970;2022-08-19T01:11:26;4.18;;;3.78;;
65206;SDS011;58477;48.072;11.970;2022-08-19T01:13:53;5.18;;;4.20;;
65206;SDS011;58477;48.072;11.970;2022-08-19T01:16:20;4.90;;;4.13;;
65206;SDS011;58477;48.072;11.970;2022-08-19T01:18:49;4.38;;;3.97;;
65206;SDS011;58477;48.072;11.970;2022-08-19T01:23:56;4.82;;;4.03;;
65206;SDS011;58477;48.072;11.970;2022-08-19T01:26:23;4.85;;;4.38;;
65206;SDS011;58477;48.072;11.970;2022-08-19T01:28:51;4.45;;;3.40;;
65206;SDS011;58477;48.072;11.970;2022-08-19T01:31:20;4.18;;;3.65;;
65206;SDS011;58477;48.072;11.970;2022-08-19T01:33:51;3.83;;;3.30;;
65206;SDS011;58477;48.072;11.970;2022-08-19T01:36:37;3.22;;;2.92;;
65206;SDS011;58477;48.072;11.970;2022-08-19T01:39:09;4.03;;;3.47;;
65206;SDS011;58477;48.072;11.970;2022-08-19T01:41:36;3.38;;;3.08;;
65206;SDS011;58477;48.072;11.970;2022-08-19T01:44:04;4.38;;;3.30;;
65206;SDS011;58477;48.072;11.970;2022-08-19T01:46:31;4.00;;;3.22;;
65206;SDS011;58477;48.072;11.970;2022-08-19T01:48:57;4.20;;;2.88;;
65206;SDS011;58477;48.072;11.970;2022-08-19T01:51:23;3.17;;;2.88;;
65206;SDS011;58477;48.072;11.970;2022-08-19T01:53:49;5.80;;;3.08;;
65206;SDS011;58477;48.072;11.970;2022-08-19T01:56:16;3.35;;;3.05;;
65206;SDS011;58477;48.072;11.970;2022-08-19T01:58:53;5.13;;;3.15;;
65206;SDS011;58477;48.072;11.970;2022-08-19T02:01:27;4.10;;;2.85;;
65206;SDS011;58477;48.072;11.970;2022-08-19T02:03:56;3.20;;;2.88;;
65206;SDS011;58477;48.072;11.970;2022-08-19T02:06:23;3.30;;;2.97;;
65206;SDS011;58477;48.072;11.970;2022-08-19T02:08:48;3.30;;;2.97;;
65206;SDS011;58477;48.072;11.970;2022-08-19T02:11:24;4.30;;;3.30;;
65206;SDS011;58477;48.072;11.970;2022-08-19T02:13:53;4.00;;;3.60;;
65206;SDS011;58477;48.072;11.970;2022-08-19T02:16:19;2.88;;;2.67;;
65206;SDS011;58477;48.072;11.970;2022-08-19T02:18:45;5.05;;;3.03;;
65206;SDS011;58477;48.072;11.970;2022-08-19T02:21:14;3.45;;;3.15;;
65206;SDS011;58477;48.072;11.970;2022-08-19T02:23:43;4.10;;;3.17;;
65206;SDS011;58477;48.072;11.970;2022-08-19T02:26:09;3.20;;;2.90;;
65206;SDS011;58477;48.072;11.970;2022-08-19T02:28:35;3.05;;;2.75;;
65206;SDS011;58477;48.072;11.970;2022-08-19T02:31:01;3.80;;;2.97;;
65206;SDS011;58477;48.072;11.970;2022-08-19T02:33:28;3.25;;;2.97;;
65206;SDS011;58477;48.072;11.970;2022-08-19T02:35:53;4.00;;;3.13;;
65206;SDS011;58477;48.072;11.970;2022-08-19T02:38:19;4.15;;;3.40;;
65206;SDS011;58477;48.072;11.970;2022-08-19T02:40:51;4.47;;;2.90;;
65206;SDS011;58477;48.072;11.970;2022-08-19T02:43:22;4.00;;;3.53;;
65206;SDS011;58477;48.072;11.970;2022-08-19T02:45:49;3.95;;;3.53;;
65206;SDS011;58477;48.072;11.970;2022-08-19T02:48:16;3.42;;;3.13;;
65206;SDS011;58477;48.072;11.970;2022-08-19T02:50:43;4.65;;;3.33;;
65206;SDS011;58477;48.072;11.970;2022-08-19T02:53:09;5.30;;;3.10;;
65206;SDS011;58477;48.072;11.970;2022-08-19T02:55:35;6.15;;;3.10;;
65206;SDS011;58477;48.072;11.970;2022-08-19T02:58:02;3.90;;;3.55;;
65206;SDS011;58477;48.072;11.970;2022-08-19T03:00:27;5.10;;;2.90;;
65206;SDS011;58477;48.072;11.970;2022-08-19T03:02:53;3.63;;;3.03;;
65206;SDS011;58477;48.072;11.970;2022-08-19T03:05:18;4.13;;;3.40;;
65206;SDS011;58477;48.072;11.970;2022-08-19T03:07:44;3.28;;;2.97;;
65206;SDS011;58477;48.072;11.970;2022-08-19T03:10:11;3.35;;;3.05;;
65206;SDS011;58477;48.072;11.970;2022-08-19T03:12:37;3.65;;;3.00;;
65206;SDS011;58477;48.072;11.970;2022-08-19T03:15:07;3.03;;;2.60;;
65206;SDS011;58477;48.072;11.970;2022-08-19T03:17:34;2.90;;;2.50;;
65206;SDS011;58477;48.072;11.970;2022-08-19T03:20:00;2.65;;;2.45;;
65206;SDS011;58477;48.072;11.970;2022-08-19T03:22:26;2.60;;;2.40;;
65206;SDS011;58477;48.072;11.970;2022-08-19T03:24:51;2.63;;;2.42;;
65206;SDS011;58477;48.072;11.970;2022-08-19T03:27:18;2.42;;;2.22;;
65206;SDS011;58477;48.072;11.970;2022-08-19T03:29:43;2.85;;;2.60;;
65206;SDS011;58477;48.072;11.970;2022-08-19T03:32:10;2.60;;;2.40;;
65206;SDS011;58477;48.072;11.970;2022-08-19T03:34:36;2.90;;;2.50;;
65206;SDS011;58477;48.072;11.970;2022-08-19T03:37:04;3.90;;;2.30;;
65206;SDS011;58477;48.072;11.970;2022-08-19T03:39:33;3.25;;;2.45;;
65206;SDS011;58477;48.072;11.970;2022-08-19T03:41:59;3.28;;;2.42;;
65206;SDS011;58477;48.072;11.970;2022-08-19T03:44:27;2.80;;;2.47;;
65206;SDS011;58477;48.072;11.970;2022-08-19T03:46:54;3.47;;;2.10;;
65206;SDS011;58477;48.072;11.970;2022-08-19T03:49:21;1.98;;;1.88;;
65206;SDS011;58477;48.072;11.970;2022-08-19T03:51:49;2.47;;;2.03;;
65206;SDS011;58477;48.072;11.970;2022-08-19T03:54:17;2.50;;;2.20;;
65206;SDS011;58477;48.072;11.970;2022-08-19T03:56:45;2.70;;;2.22;;
65206;SDS011;58477;48.072;11.970;2022-08-19T03:59:14;2.60;;;2.40;;
65206;SDS011;58477;48.072;11.970;2022-08-19T04:01:41;2.67;;;2.47;;
65206;SDS011;58477;48.072;11.970;2022-08-19T04:04:07;2.65;;;2.45;;
65206;SDS011;58477;48.072;11.970;2022-08-19T04:06:34;2.38;;;2.17;;
65206;SDS011;58477;48.072;11.970;2022-08-19T04:09:02;2.55;;;2.30;;
65206;SDS011;58477;48.072;11.970;2022-08-19T04:11:36;2.67;;;2.47;;
65206;SDS011;58477;48.072;11.970;2022-08-19T04:14:07;3.13;;;2.83;;
65206;SDS011;58477;48.072;11.970;2022-08-19T04:16:34;3.22;;;2.40;;
65206;SDS011;58477;48.072;11.970;2022-08-19T04:19:00;2.80;;;2.60;;
65206;SDS011;58477;48.072;11.970;2022-08-19T04:21:28;3.03;;;2.60;;
65206;SDS011;58477;48.072;11.970;2022-08-19T04:23:54;3.22;;;3.03;;
65206;SDS011;58477;48.072;11.970;2022-08-19T04:26:22;2.40;;;2.20;;
65206;SDS011;58477;48.072;11.970;2022-08-19T04:28:50;2.50;;;2.30;;
65206;SDS011;58477;48.072;11.970;2022-08-19T04:31:21;3.08;;;2.60;;
65206;SDS011;58477;48.072;11.970;2022-08-19T04:33:51;5.78;;;2.80;;
65206;SDS011;58477;48.072;11.970;2022-08-19T04:36:25;4.90;;;2.20;;
65206;SDS011;58477;48.072;11.970;2022-08-19T04:38:54;3.05;;;2.20;;
65206;SDS011;58477;48.072;11.970;2022-08-19T04:41:21;2.30;;;2.10;;
65206;SDS011;58477;48.072;11.970;2022-08-19T04:44:06;3.20;;;2.70;;
65206;SDS011;58477;48.072;11.970;2022-08-19T04:46:32;3.03;;;2.40;;
65206;SDS011;58477;48.072;11.970;2022-08-19T04:48:58;4.50;;;2.90;;
65206;SDS011;58477;48.072;11.970;2022-08-19T04:51:25;2.60;;;2.40;;
65206;SDS011;58477;48.072;11.970;2022-08-19T04:53:50;3.10;;;2.80;;
65206;SDS011;58477;48.072;11.970;2022-08-19T04:56:18;2.90;;;2.70;;
65206;SDS011;58477;48.072;11.970;2022-08-19T04:58:49;2.60;;;2.40;;
65206;SDS011;58477;48.072;11.970;2022-08-19T05:01:20;3.13;;;2.50;;
65206;SDS011;58477;48.072;11.970;2022-08-19T05:03:48;6.60;;;2.50;;
65206;SDS011;58477;48.072;11.970;2022-08-19T05:06:15;2.80;;;2.60;;
65206;SDS011;58477;48.072;11.970;2022-08-19T05:08:42;3.30;;;2.72;;
65206;SDS011;58477;48.072;11.970;2022-08-19T05:11:13;2.83;;;2.47;;
65206;SDS011;58477;48.072;11.970;2022-08-19T05:13:41;4.32;;;2.80;;
65206;SDS011;58477;48.072;11.970;2022-08-19T05:16:08;2.97;;;2.67;;
65206;SDS011;58477;48.072;11.970;2022-08-19T05:18:35;5.97;;;3.08;;
65206;SDS011;58477;48.072;11.970;2022-08-19T05:21:20;4.38;;;3.15;;
65206;SDS011;58477;48.072;11.970;2022-08-19T05:24:05;4.03;;;3.10;;
65206;SDS011;58477;48.072;11.970;2022-08-19T05:26:37;3.30;;;2.90;;
65206;SDS011;58477;48.072;11.970;2022-08-19T05:29:04;3.92;;;3.05;;
65206;SDS011;58477;48.072;11.970;2022-08-19T05:31:30;3.72;;;3.40;;
65206;SDS011;58477;48.072;11.970;2022-08-19T05:33:56;3.90;;;3.33;;
65206;SDS011;58477;48.072;11.970;2022-08-19T05:36:24;3.63;;;3.33;;
65206;SDS011;58477;48.072;11.970;2022-08-19T05:38:54;4.25;;;3.08;;
65206;SDS011;58477;48.072;11.970;2022-08-19T05:41:21;3.53;;;3.22;;
65206;SDS011;58477;48.072;11.970;2022-08-19T05:43:55;5.65;;;3.05;;
65206;SDS011;58477;48.072;11.970;2022-08-19T05:46:23;3.47;;;3.17;;
65206;SDS011;58477;48.072;11.970;2022-08-19T05:48:49;5.75;;;3.38;;
65206;SDS011;58477;48.072;11.970;2022-08-19T05:51:15;3.70;;;3.40;;
65206;SDS011;58477;48.072;11.970;2022-08-19T05:53:41;5.18;;;3.70;;
65206;SDS011;58477;48.072;11.970;2022-08-19T05:56:11;3.72;;;3.15;;
65206;SDS011;58477;48.072;11.970;2022-08-19T05:58:41;4.15;;;3.75;;
65206;SDS011;58477;48.072;11.970;2022-08-19T06:01:11;4.00;;;3.60;;
65206;SDS011;58477;48.072;11.970;2022-08-19T06:03:39;4.18;;;3.47;;
65206;SDS011;58477;48.072;11.970;2022-08-19T06:06:06;4.40;;;3.53;;
65206;SDS011;58477;48.072;11.970;2022-08-19T06:08:33;3.92;;;3.20;;
65206;SDS011;58477;48.072;11.970;2022-08-19T06:11:11;3.72;;;3.33;;
65206;SDS011;58477;48.072;11.970;2022-08-19T06:13:45;6.45;;;3.30;;
65206;SDS011;58477;48.072;11.970;2022-08-19T06:16:15;5.93;;;3.03;;
65206;SDS011;58477;48.072;11.970;2022-08-19T06:21:22;5.85;;;3.70;;
65206;SDS011;58477;48.072;11.970;2022-08-19T06:23:50;5.82;;;3.42;;
65206;SDS011;58477;48.072;11.970;2022-08-19T06:26:17;3.83;;;3.42;;
65206;SDS011;58477;48.072;11.970;2022-08-19T06:28:44;3.40;;;3.10;;
65206;SDS011;58477;48.072;11.970;2022-08-19T06:31:14;3.55;;;3.25;;
65206;SDS011;58477;48.072;11.970;2022-08-19T06:33:45;6.03;;;3.50;;
65206;SDS011;58477;48.072;11.970;2022-08-19T06:36:22;4.10;;;3.60;;
65206;SDS011;58477;48.072;11.970;2022-08-19T06:38:49;4.53;;;4.10;;
65206;SDS011;58477;48.072;11.970;2022-08-19T06:41:14;5.13;;;3.95;;
65206;SDS011;58477;48.072;11.970;2022-08-19T06:43:40;4.35;;;3.92;;
65206;SDS011;58477;48.072;11.970;2022-08-19T06:46:11;4.40;;;4.00;;
65206;SDS011;58477;48.072;11.970;2022-08-19T06:48:38;4.97;;;3.97;;
65206;SDS011;58477;48.072;11.970;2022-08-19T06:51:04;3.92;;;3.50;;
65206;SDS011;58477;48.072;11.970;2022-08-19T06:53:31;5.55;;;4.35;;
65206;SDS011;58477;48.072;11.970;2022-08-19T06:55:57;4.80;;;3.83;;
65206;SDS011;58477;48.072;11.970;2022-08-19T06:58:27;5.97;;;4.40;;
65206;SDS011;58477;48.072;11.970;2022-08-19T07:01:02;6.43;;;4.65;;
65206;SDS011;58477;48.072;11.970;2022-08-19T07:03:29;6.53;;;4.40;;
65206;SDS011;58477;48.072;11.970;2022-08-19T07:05:57;4.70;;;4.22;;
65206;SDS011;58477;48.072;11.970;2022-08-19T07:08:27;5.60;;;4.53;;
65206;SDS011;58477;48.072;11.970;2022-08-19T07:10:52;5.63;;;4.53;;
65206;SDS011;58477;48.072;11.970;2022-08-19T07:13:18;5.28;;;4.75;;
65206;SDS011;58477;48.072;11.970;2022-08-19T07:15:44;9.38;;;4.32;;
65206;SDS011;58477;48.072;11.970;2022-08-19T07:18:11;6.47;;;4.65;;
65206;SDS011;58477;48.072;11.970;2022-08-19T07:20:37;6.00;;;5.40;;
65206;SDS011;58477;48.072;11.970;2022-08-19T07:23:04;5.20;;;4.70;;
65206;SDS011;58477;48.072;11.970;2022-08-19T07:25:29;5.88;;;4.70;;
65206;SDS011;58477;48.072;11.970;2022-08-19T07:27:54;5.70;;;4.63;;
65206;SDS011;58477;48.072;11.970;2022-08-19T07:30:20;7.32;;;4.82;;
65206;SDS011;58477;48.072;11.970;2022-08-19T07:32:47;6.32;;;5.00;;
65206;SDS011;58477;48.072;11.970;2022-08-19T07:35:13;7.85;;;5.55;;
65206;SDS011;58477;48.072;11.970;2022-08-19T07:37:38;5.53;;;5.03;;
65206;SDS011;58477;48.072;11.970;2022-08-19T07:40:09;6.95;;;5.70;;
65206;SDS011;58477;48.072;11.970;2022-08-19T07:42:35;6.68;;;5.45;;
65206;SDS011;58477;48.072;11.970;2022-08-19T07:45:01;6.43;;;4.85;;
65206;SDS011;58477;48.072;11.970;2022-08-19T07:47:28;7.10;;;4.90;;
65206;SDS011;58477;48.072;11.970;2022-08-19T07:49:53;6.82;;;5.45;;
65206;SDS011;58477;48.072;11.970;2022-08-19T07:52:19;6.03;;;4.97;;
65206;SDS011;58477;48.072;11.970;2022-08-19T07:54:45;5.90;;;5.13;;
65206;SDS011;58477;48.072;11.970;2022-08-19T07:57:10;5.07;;;4.57;;
65206;SDS011;58477;48.072;11.970;2022-08-19T07:59:36;6.70;;;5.38;;
65206;SDS011;58477;48.072;11.970;2022-08-19T08:02:02;6.50;;;5.55;;
65206;SDS011;58477;48.072;11.970;2022-08-19T08:04:28;6.22;;;5.35;;
65206;SDS011;58477;48.072;11.970;2022-08-19T08:07:13;6.70;;;5.50;;
65206;SDS011;58477;48.072;11.970;2022-08-19T08:09:57;6.53;;;5.22;;
65206;SDS011;58477;48.072;11.970;2022-08-19T08:12:25;11.48;;;5.97;;
65206;SDS011;58477;48.072;11.970;2022-08-19T08:14:54;5.55;;;4.97;;
65206;SDS011;58477;48.072;11.970;2022-08-19T08:17:23;5.88;;;5.00;;
65206;SDS011;58477;48.072;11.970;2022-08-19T08:19:51;7.13;;;4.78;;
65206;SDS011;58477;48.072;11.970;2022-08-19T08:22:18;10.48;;;5.15;;
65206;SDS011;58477;48.072;11.970;2022-08-19T08:25:05;6.75;;;5.30;;
65206;SDS011;58477;48.072;11.970;2022-08-19T08:27:36;7.43;;;5.78;;
65206;SDS011;58477;48.072;11.970;2022-08-19T08:30:05;7.55;;;5.90;;
65206;SDS011;58477;48.072;11.970;2022-08-19T08:32:35;7.05;;;5.82;;
65206;SDS011;58477;48.072;11.970;2022-08-19T08:35:02;8.98;;;5.70;;
65206;SDS011;58477;48.072;11.970;2022-08-19T08:37:29;7.97;;;5.63;;
65206;SDS011;58477;48.072;11.970;2022-08-19T08:39:55;6.88;;;6.03;;
65206;SDS011;58477;48.072;11.970;2022-08-19T08:42:22;6.72;;;5.35;;
65206;SDS011;58477;48.072;11.970;2022-08-19T08:44:59;10.48;;;6.57;;
65206;SDS011;58477;48.072;11.970;2022-08-19T08:47:30;6.80;;;6.10;;
65206;SDS011;58477;48.072;11.970;2022-08-19T08:50:07;7.65;;;6.22;;
65206;SDS011;58477;48.072;11.970;2022-08-19T08:52:43;13.23;;;7.22;;
65206;SDS011;58477;48.072;11.970;2022-08-19T08:55:15;8.23;;;6.82;;
65206;SDS011;58477;48.072;11.970;2022-08-19T09:00:14;8.90;;;6.88;;
65206;SDS011;58477;48.072;11.970;2022-08-19T09:02:43;12.85;;;7.88;;
65206;SDS011;58477;48.072;11.970;2022-08-19T09:05:09;23.83;;;9.68;;
65206;SDS011;58477;48.072;11.970;2022-08-19T09:10:29;12.20;;;8.65;;
65206;SDS011;58477;48.072;11.970;2022-08-19T09:13:18;9.55;;;7.53;;
65206;SDS011;58477;48.072;11.970;2022-08-19T09:16:00;8.60;;;7.35;;
65206;SDS011;58477;48.072;11.970;2022-08-19T09:21:09;11.23;;;7.32;;
65206;SDS011;58477;48.072;11.970;2022-08-19T09:23:35;9.35;;;7.32;;
65206;SDS011;58477;48.072;11.970;2022-08-19T09:26:04;8.80;;;7.13;;
65206;SDS011;58477;48.072;11.970;2022-08-19T09:28:32;12.32;;;7.32;;
65206;SDS011;58477;48.072;11.970;2022-08-19T09:31:02;11.05;;;7.63;;
65206;SDS011;58477;48.072;11.970;2022-08-19T09:33:27;9.07;;;7.72;;
65206;SDS011;58477;48.072;11.970;2022-08-19T09:36:03;10.20;;;7.80;;
65206;SDS011;58477;48.072;11.970;2022-08-19T09:38:31;12.30;;;8.93;;
65206;SDS011;58477;48.072;11.970;2022-08-19T09:41:01;10.07;;;8.95;;
65206;SDS011;58477;48.072;11.970;2022-08-19T09:43:31;12.95;;;8.80;;
65206;SDS011;58477;48.072;11.970;2022-08-19T09:45:57;11.65;;;8.48;;
65206;SDS011;58477;48.072;11.970;2022-08-19T09:48:23;9.23;;;7.07;;
65206;SDS011;58477;48.072;11.970;2022-08-19T09:50:48;7.35;;;6.57;;
65206;SDS011;58477;48.072;11.970;2022-08-19T09:53:16;6.55;;;5.80;;
65206;SDS011;58477;48.072;11.970;2022-08-19T09:55:42;7.38;;;6.55;;
65206;SDS011;58477;48.072;11.970;2022-08-19T09:58:08;6.78;;;6.07;;
65206;SDS011;58477;48.072;11.970;2022-08-19T10:00:33;8.57;;;6.63;;
65206;SDS011;58477;48.072;11.970;2022-08-19T10:02:59;7.65;;;6.85;;
65206;SDS011;58477;48.072;11.970;2022-08-19T10:05:24;8.10;;;6.55;;
65206;SDS011;58477;48.072;11.970;2022-08-19T10:08:09;8.25;;;6.43;;
65206;SDS011;58477;48.072;11.970;2022-08-19T10:10:36;6.05;;;5.45;;
65206;SDS011;58477;48.072;11.970;2022-08-19T10:13:02;7.53;;;5.70;;
65206;SDS011;58477;48.072;11.970;2022-08-19T10:15:27;8.23;;;5.97;;
65206;SDS011;58477;48.072;11.970;2022-08-19T10:17:53;6.15;;;5.47;;
65206;SDS011;58477;48.072;11.970;2022-08-19T10:20:18;6.82;;;5.95;;
65206;SDS011;58477;48.072;11.970;2022-08-19T10:22:43;7.00;;;6.10;;
65206;SDS011;58477;48.072;11.970;2022-08-19T10:25:09;7.72;;;6.15;;
65206;SDS011;58477;48.072;11.970;2022-08-19T10:27:34;6.20;;;5.57;;
65206;SDS011;58477;48.072;11.970;2022-08-19T10:30:00;6.07;;;5.57;;
65206;SDS011;58477;48.072;11.970;2022-08-19T10:32:26;7.53;;;5.75;;
65206;SDS011;58477;48.072;11.970;2022-08-19T10:34:52;6.65;;;5.63;;
65206;SDS011;58477;48.072;11.970;2022-08-19T10:37:18;5.97;;;5.35;;
65206;SDS011;58477;48.072;11.970;2022-08-19T10:39:45;6.50;;;5.90;;
65206;SDS011;58477;48.072;11.970;2022-08-19T10:42:12;9.10;;;5.88;;
65206;SDS011;58477;48.072;11.970;2022-08-19T10:44:38;6.13;;;5.53;;
65206;SDS011;58477;48.072;11.970;2022-08-19T10:47:04;7.35;;;6.03;;
65206;SDS011;58477;48.072;11.970;2022-08-19T10:49:30;6.95;;;6.22;;
65206;SDS011;58477;48.072;11.970;2022-08-19T10:51:57;6.38;;;5.78;;
65206;SDS011;58477;48.072;11.970;2022-08-19T10:54:42;5.63;;;5.03;;
65206;SDS011;58477;48.072;11.970;2022-08-19T10:57:30;5.78;;;5.13;;
65206;SDS011;58477;48.072;11.970;2022-08-19T10:59:55;5.85;;;4.80;;
65206;SDS011;58477;48.072;11.970;2022-08-19T11:02:21;6.50;;;4.97;;
65206;SDS011;58477;48.072;11.970;2022-08-19T11:04:47;4.53;;;4.13;;
65206;SDS011;58477;48.072;11.970;2022-08-19T11:07:14;5.50;;;4.05;;
65206;SDS011;58477;48.072;11.970;2022-08-19T11:09:40;4.47;;;4.07;;
65206;SDS011;58477;48.072;11.970;2022-08-19T11:12:07;4.65;;;4.25;;
65206;SDS011;58477;48.072;11.970;2022-08-19T11:14:34;4.70;;;4.25;;
65206;SDS011;58477;48.072;11.970;2022-08-19T11:17:00;4.30;;;3.90;;
65206;SDS011;58477;48.072;11.970;2022-08-19T11:19:27;4.03;;;3.65;;
65206;SDS011;58477;48.072;11.970;2022-08-19T11:21:52;3.95;;;3.50;;
65206;SDS011;58477;48.072;11.970;2022-08-19T11:24:20;2.88;;;2.65;;
65206;SDS011;58477;48.072;11.970;2022-08-19T11:26:48;3.40;;;3.10;;
65206;SDS011;58477;48.072;11.970;2022-08-19T11:29:15;5.20;;;3.38;;
65206;SDS011;58477;48.072;11.970;2022-08-19T11:31:42;3.30;;;3.03;;
65206;SDS011;58477;48.072;11.970;2022-08-19T11:34:11;3.30;;;3.00;;
65206;SDS011;58477;48.072;11.970;2022-08-19T11:36:39;5.03;;;4.63;;
65206;SDS011;58477;48.072;11.970;2022-08-19T11:39:07;5.75;;;4.65;;
65206;SDS011;58477;48.072;11.970;2022-08-19T11:41:33;4.75;;;4.35;;
65206;SDS011;58477;48.072;11.970;2022-08-19T11:43:58;4.80;;;4.40;;
65206;SDS011;58477;48.072;11.970;2022-08-19T11:46:25;7.25;;;5.20;;
65206;SDS011;58477;48.072;11.970;2022-08-19T11:48:54;7.03;;;5.32;;
65206;SDS011;58477;48.072;11.970;2022-08-19T11:51:25;6.13;;;5.50;;
65206;SDS011;58477;48.072;11.970;2022-08-19T11:53:51;5.68;;;4.85;;
65206;SDS011;58477;48.072;11.970;2022-08-19T11:56:18;5.70;;;4.70;;
65206;SDS011;58477;48.072;11.970;2022-08-19T11:58:45;5.43;;;4.88;;
65206;SDS011;58477;48.072;11.970;2022-08-19T12:01:11;5.30;;;4.28;;
65206;SDS011;58477;48.072;11.970;2022-08-19T12:03:41;5.22;;;4.72;;
65206;SDS011;58477;48.072;11.970;2022-08-19T12:06:08;5.10;;;4.30;;
65206;SDS011;58477;48.072;11.970;2022-08-19T12:08:40;5.70;;;5.10;;
65206;SDS011;58477;48.072;11.970;2022-08-19T12:11:06;4.90;;;4.40;;
65206;SDS011;58477;48.072;11.970;2022-08-19T12:13:35;5.32;;;4.82;;
65206;SDS011;58477;48.072;11.970;2022-08-19T12:16:08;5.53;;;5.03;;
65206;SDS011;58477;48.072;11.970;2022-08-19T12:18:38;5.18;;;4.68;;
65206;SDS011;58477;48.072;11.970;2022-08-19T12:21:06;4.18;;;3.78;;
65206;SDS011;58477;48.072;11.970;2022-08-19T12:23:32;5.10;;;4.22;;
65206;SDS011;58477;48.072;11.970;2022-08-19T12:25:57;10.60;;;4.55;;
65206;SDS011;58477;48.072;11.970;2022-08-19T12:28:24;4.47;;;4.07;;
65206;SDS011;58477;48.072;11.970;2022-08-19T12:30:50;4.90;;;4.40;;
65206;SDS011;58477;48.072;11.970;2022-08-19T12:33:17;5.22;;;4.53;;
65206;SDS011;58477;48.072;11.970;2022-08-19T12:35:44;4.47;;;4.07;;
65206;SDS011;58477;48.072;11.970;2022-08-19T12:38:11;5.18;;;3.97;;
65206;SDS011;58477;48.072;11.970;2022-08-19T12:40:38;4.45;;;4.03;;
65206;SDS011;58477;48.072;11.970;2022-08-19T12:43:05;4.57;;;4.07;;
65206;SDS011;58477;48.072;11.970;2022-08-19T12:45:32;5.10;;;4.05;;
65206;SDS011;58477;48.072;11.970;2022-08-19T12:47:58;4.97;;;4.47;;
65206;SDS011;58477;48.072;11.970;2022-08-19T12:50:24;7.20;;;4.38;;
65206;SDS011;58477;48.072;11.970;2022-08-19T12:52:49;4.63;;;4.05;;
65206;SDS011;58477;48.072;11.970;2022-08-19T12:55:15;6.32;;;5.70;;
65206;SDS011;58477;48.072;11.970;2022-08-19T12:57:40;7.70;;;5.93;;
65206;SDS011;58477;48.072;11.970;2022-08-19T13:00:07;7.50;;;6.00;;
65206;SDS011;58477;48.072;11.970;2022-08-19T13:02:36;7.88;;;5.15;;
65206;SDS011;58477;48.072;11.970;2022-08-19T13:05:03;7.93;;;5.25;;
65206;SDS011;58477;48.072;11.970;2022-08-19T13:07:31;5.53;;;4.90;;
65206;SDS011;58477;48.072;11.970;2022-08-19T13:09:57;5.15;;;4.53;;
65206;SDS011;58477;48.072;11.970;2022-08-19T13:12:23;4.88;;;4.38;;
65206;SDS011;58477;48.072;11.970;2022-08-19T13:14:51;4.75;;;3.55;;
65206;SDS011;58477;48.072;11.970;2022-08-19T13:17:20;3.30;;;3.00;;
65206;SDS011;58477;48.072;11.970;2022-08-19T13:19:46;2.55;;;2.35;;
65206;SDS011;58477;48.072;11.970;2022-08-19T13:22:11;3.15;;;2.85;;
65206;SDS011;58477;48.072;11.970;2022-08-19T13:24:37;3.65;;;3.10;;
65206;SDS011;58477;48.072;11.970;2022-08-19T13:27:04;5.38;;;2.80;;
65206;SDS011;58477;48.072;11.970;2022-08-19T13:29:29;3.67;;;2.80;;
65206;SDS011;58477;48.072;11.970;2022-08-19T13:32:13;2.30;;;2.00;;
65206;SDS011;58477;48.072;11.970;2022-08-19T13:34:58;2.30;;;2.10;;
65206;SDS011;58477;48.072;11.970;2022-08-19T13:37:23;2.40;;;2.20;;
65206;SDS011;58477;48.072;11.970;2022-08-19T13:40:16;4.22;;;1.85;;
65206;SDS011;58477;48.072;11.970;2022-08-19T13:42:48;1.70;;;1.60;;
65206;SDS011;58477;48.072;11.970;2022-08-19T13:45:16;1.58;;;1.48;;
65206;SDS011;58477;48.072;11.970;2022-08-19T13:47:51;1.63;;;1.52;;
65206;SDS011;58477;48.072;11.970;2022-08-19T13:50:21;2.08;;;1.40;;
65206;SDS011;58477;48.072;11.970;2022-08-19T13:52:49;1.05;;;1.05;;
65206;SDS011;58477;48.072;11.970;2022-08-19T13:55:15;1.15;;;1.08;;
65206;SDS011;58477;48.072;11.970;2022-08-19T13:57:41;1.35;;;1.23;;
65206;SDS011;58477;48.072;11.970;2022-08-19T14:00:08;1.58;;;1.10;;
65206;SDS011;58477;48.072;11.970;2022-08-19T14:02:36;2.13;;;1.13;;
65206;SDS011;58477;48.072;11.970;2022-08-19T14:05:03;1.10;;;1.10;;
65206;SDS011;58477;48.072;11.970;2022-08-19T14:07:34;0.98;;;0.98;;
65206;SDS011;58477;48.072;11.970;2022-08-19T14:10:01;1.10;;;1.00;;
65206;SDS011;58477;48.072;11.970;2022-08-19T14:12:27;1.17;;;1.08;;
65206;SDS011;58477;48.072;11.970;2022-08-19T14:14:53;1.10;;;0.80;;
65206;SDS011;58477;48.072;11.970;2022-08-19T14:17:19;1.52;;;0.90;;
65206;SDS011;58477;48.072;11.970;2022-08-19T14:19:44;1.30;;;1.02;;
65206;SDS011;58477;48.072;11.970;2022-08-19T14:22:09;1.10;;;1.00;;
65206;SDS011;58477;48.072;11.970;2022-08-19T14:24:37;2.25;;;1.30;;
65206;SDS011;58477;48.072;11.970;2022-08-19T14:27:04;1.27;;;1.10;;
65206;SDS011;58477;48.072;11.970;2022-08-19T14:29:31;1.33;;;1.00;;
65206;SDS011;58477;48.072;11.970;2022-08-19T14:31:57;1.00;;;0.90;;
65206;SDS011;58477;48.072;11.970;2022-08-19T14:34:24;0.90;;;0.90;;
65206;SDS011;58477;48.072;11.970;2022-08-19T14:36:51;2.28;;;1.17;;
65206;SDS011;58477;48.072;11.970;2022-08-19T14:39:16;1.35;;;0.95;;
65206;SDS011;58477;48.072;11.970;2022-08-19T14:41:42;0.90;;;0.90;;
65206;SDS011;58477;48.072;11.970;2022-08-19T14:44:07;1.00;;;0.90;;
65206;SDS011;58477;48.072;11.970;2022-08-19T14:46:35;1.27;;;1.00;;
65206;SDS011;58477;48.072;11.970;2022-08-19T14:49:00;1.00;;;1.00;;
65206;SDS011;58477;48.072;11.970;2022-08-19T14:51:25;1.23;;;1.10;;